Time;durP1;ratioP1;P1;durP2;ratioP2;P2;SDS_P1;SDS_P2;PMS_P1;PMS_P2;Temp;Humidity;BMP_temperature;BMP_pressure;BME280_temperature;BME280_humidity;BME280_pressure;Samples;Min_cycle;Max_cycle;Signal;HPM_P1;HPM_P2
2023/04/09 00:00:23;;;;;;;38.53;34.42;;;;;;;;;;5283385;28;20038;-74
2023/04/09 00:02:55;;;;;;;42.33;36.00;;;;;;;;;;5282875;28;20024;-74
2023/04/09 00:05:26;;;;;;;38.03;33.90;;;;;;;;;;5282479;28;20031;-74
2023/04/09 00:07:57;;;;;;;42.58;37.90;;;;;;;;;;5282641;28;20534;-74
2023/04/09 00:10:28;;;;;;;40.38;35.58;;;;;;;;;;5283317;28;20091;-73
2023/04/09 00:13:00;;;;;;;40.97;36.35;;;;;;;;;;5282080;28;20016;-73
2023/04/09 00:15:31;;;;;;;38.78;34.35;;;;;;;;;;5282814;28;20062;-73
2023/04/09 00:18:02;;;;;;;36.20;32.30;;;;;;;;;;5282757;28;20028;-73
2023/04/09 00:20:33;;;;;;;38.97;33.20;;;;;;;;;;5281899;28;20030;-74
2023/04/09 00:23:04;;;;;;;36.15;32.30;;;;;;;;;;5282559;28;20049;-74
2023/04/09 00:25:36;;;;;;;35.88;31.70;;;;;;;;;;5282581;28;20193;-74
2023/04/09 00:28:07;;;;;;;34.95;31.15;;;;;;;;;;5281726;28;20031;-74
2023/04/09 00:30:38;;;;;;;35.92;30.20;;;;;;;;;;5282150;28;20032;-74
2023/04/09 00:33:09;;;;;;;29.88;26.67;;;;;;;;;;5282156;28;20029;-74
2023/04/09 00:35:41;;;;;;;32.92;29.33;;;;;;;;;;5282241;28;20029;-75
2023/04/09 00:38:12;;;;;;;30.77;27.48;;;;;;;;;;5282797;28;20089;-74
2023/04/09 00:40:47;;;;;;;32.22;28.02;;;;;;;;;;5281108;28;20301;-74
2023/04/09 00:43:18;;;;;;;28.88;25.75;;;;;;;;;;5282117;28;20520;-74
2023/04/09 00:45:50;;;;;;;29.60;26.50;;;;;;;;;;5281897;28;20016;-74
2023/04/09 00:48:21;;;;;;;31.55;27.10;;;;;;;;;;5281907;28;20016;-73
2023/04/09 00:50:52;;;;;;;29.00;26.08;;;;;;;;;;5281817;28;20479;-74
2023/04/09 00:53:24;;;;;;;27.10;24.35;;;;;;;;;;5282530;28;20432;-74
2023/04/09 00:55:55;;;;;;;28.00;25.10;;;;;;;;;;5280856;28;20070;-74
2023/04/09 00:58:26;;;;;;;27.42;24.48;;;;;;;;;;5282320;28;20455;-74
2023/04/09 01:00:57;;;;;;;28.15;25.15;;;;;;;;;;5281728;28;20040;-74
2023/04/09 01:03:29;;;;;;;27.30;24.50;;;;;;;;;;5281648;28;20048;-74
2023/04/09 01:06:03;;;;;;;27.40;23.95;;;;;;;;;;5281776;28;20066;-74
2023/04/09 01:08:50;;;;;;;28.10;25.10;;;;;;;;;;5281309;28;20028;-74
2023/04/09 01:11:33;;;;;;;25.67;22.98;;;;;;;;;;5282379;28;20378;-74
2023/04/09 01:14:13;;;;;;;25.55;22.83;;;;;;;;;;5281878;28;20035;-74
2023/04/09 01:16:46;;;;;;;29.35;24.38;;;;;;;;;;5280691;28;20062;-74
2023/04/09 01:19:17;;;;;;;29.35;25.33;;;;;;;;;;5282337;28;20451;-74
2023/04/09 01:21:49;;;;;;;26.23;23.42;;;;;;;;;;5281361;28;20093;-75
2023/04/09 01:24:25;;;;;;;25.42;22.80;;;;;;;;;;5281102;28;20274;-75
2023/04/09 01:27:00;;;;;;;24.20;21.75;;;;;;;;;;5281374;28;20111;-73
2023/04/09 01:29:38;;;;;;;27.35;24.50;;;;;;;;;;5281157;28;20017;-75
2023/04/09 01:32:09;;;;;;;23.02;20.65;;;;;;;;;;5281959;28;20047;-73
2023/04/09 01:34:41;;;;;;;23.88;21.33;;;;;;;;;;5281464;28;20471;-74
2023/04/09 01:37:14;;;;;;;24.42;21.83;;;;;;;;;;5281137;28;20066;-75
2023/04/09 01:39:45;;;;;;;23.92;21.33;;;;;;;;;;5281119;28;20081;-74
2023/04/09 01:42:17;;;;;;;23.30;20.80;;;;;;;;;;5282161;28;20028;-74
2023/04/09 01:44:48;;;;;;;24.30;21.65;;;;;;;;;;5280495;28;20024;-74
2023/04/09 01:47:20;;;;;;;25.77;22.20;;;;;;;;;;5281824;28;20056;-74
2023/04/09 01:49:51;;;;;;;26.80;23.60;;;;;;;;;;5281294;28;20016;-74
2023/04/09 01:52:22;;;;;;;24.65;22.15;;;;;;;;;;5281242;28;20020;-74
2023/04/09 01:54:54;;;;;;;24.70;22.17;;;;;;;;;;5281695;28;20124;-74
2023/04/09 01:57:25;;;;;;;23.83;21.27;;;;;;;;;;5285177;28;20082;-74
2023/04/09 01:59:56;;;;;;;23.48;21.05;;;;;;;;;;5285026;28;20250;-74
2023/04/09 02:02:34;;;;;;;25.10;22.25;;;;;;;;;;5285611;28;20494;-74
2023/04/09 02:05:07;;;;;;;23.37;21.00;;;;;;;;;;5284778;28;20063;-74
2023/04/09 02:07:42;;;;;;;23.23;20.67;;;;;;;;;;5285189;28;20152;-73
2023/04/09 02:10:16;;;;;;;23.98;21.25;;;;;;;;;;5285630;28;20373;-74
2023/04/09 02:12:49;;;;;;;25.40;22.80;;;;;;;;;;5284136;28;20025;-74
2023/04/09 02:15:21;;;;;;;26.95;24.05;;;;;;;;;;5285528;28;20017;-74
2023/04/09 02:17:52;;;;;;;25.67;23.05;;;;;;;;;;5284930;28;20105;-74
2023/04/09 02:20:23;;;;;;;26.25;23.50;;;;;;;;;;5284809;28;20036;-74
2023/04/09 02:22:54;;;;;;;25.70;22.95;;;;;;;;;;5284529;28;20056;-73
2023/04/09 02:25:26;;;;;;;25.65;22.60;;;;;;;;;;5285030;28;20036;-74
2023/04/09 02:27:57;;;;;;;28.30;25.23;;;;;;;;;;5284386;28;20027;-74
2023/04/09 02:30:28;;;;;;;31.23;24.92;;;;;;;;;;5285190;28;20025;-73
2023/04/09 02:32:59;;;;;;;27.58;24.58;;;;;;;;;;5283204;28;20291;-74
2023/04/09 02:35:30;;;;;;;28.05;24.77;;;;;;;;;;5284921;28;20087;-74
2023/04/09 02:38:02;;;;;;;29.05;25.63;;;;;;;;;;5284900;28;20040;-74
2023/04/09 02:40:33;;;;;;;30.27;24.85;;;;;;;;;;5283841;28;20043;-75
2023/04/09 02:43:04;;;;;;;30.83;26.15;;;;;;;;;;5284683;28;20467;-73
2023/04/09 02:45:35;;;;;;;34.13;28.75;;;;;;;;;;5284797;28;20024;-75
2023/04/09 02:48:06;;;;;;;31.45;28.05;;;;;;;;;;5283728;28;20029;-74
2023/04/09 02:50:38;;;;;;;30.67;27.05;;;;;;;;;;5284103;28;20074;-73
2023/04/09 02:53:09;;;;;;;31.65;26.90;;;;;;;;;;5284659;28;20274;-73
2023/04/09 02:55:40;;;;;;;28.48;24.20;;;;;;;;;;5283470;28;20078;-74
2023/04/09 02:58:11;;;;;;;30.83;25.92;;;;;;;;;;5284694;28;20025;-74
2023/04/09 03:00:42;;;;;;;30.42;26.33;;;;;;;;;;5283142;28;20070;-74
2023/04/09 03:03:14;;;;;;;31.25;26.27;;;;;;;;;;5284795;28;20016;-75
2023/04/09 03:05:45;;;;;;;31.48;27.08;;;;;;;;;;5284120;28;20275;-74
2023/04/09 03:08:16;;;;;;;32.78;27.58;;;;;;;;;;5283166;28;20020;-73
2023/04/09 03:10:48;;;;;;;30.95;26.73;;;;;;;;;;5283897;28;20099;-73
2023/04/09 03:13:19;;;;;;;32.80;28.33;;;;;;;;;;5284381;28;20066;-73
2023/04/09 03:15:51;;;;;;;33.75;27.73;;;;;;;;;;5283202;28;20024;-74
2023/04/09 03:18:22;;;;;;;36.25;31.05;;;;;;;;;;5284455;28;20021;-73
2023/04/09 03:20:54;;;;;;;36.95;30.15;;;;;;;;;;5283574;28;20032;-74
2023/04/09 03:23:25;;;;;;;40.35;32.60;;;;;;;;;;5283559;28;20380;-73
2023/04/09 03:26:00;;;;;;;35.60;29.92;;;;;;;;;;5283392;28;20051;-72
2023/04/09 03:28:31;;;;;;;34.65;29.67;;;;;;;;;;5283999;28;20356;-74
2023/04/09 03:31:02;;;;;;;39.47;32.00;;;;;;;;;;5283104;28;20027;-74
2023/04/09 03:33:34;;;;;;;37.28;30.13;;;;;;;;;;5284051;28;20031;-74
2023/04/09 03:36:05;;;;;;;33.85;28.40;;;;;;;;;;5282952;28;20136;-74
2023/04/09 03:38:36;;;;;;;38.40;30.02;;;;;;;;;;5283914;28;20052;-73
2023/04/09 03:41:07;;;;;;;38.13;30.10;;;;;;;;;;5283692;28;20084;-74
2023/04/09 03:43:39;;;;;;;38.60;31.13;;;;;;;;;;5282574;28;20044;-74
2023/04/09 03:46:15;;;;;;;41.33;33.20;;;;;;;;;;5283611;28;20025;-74
2023/04/09 03:48:46;;;;;;;41.30;33.03;;;;;;;;;;5283093;28;20374;-74
2023/04/09 03:51:18;;;;;;;41.33;32.80;;;;;;;;;;5282994;28;20020;-74
2023/04/09 03:53:49;;;;;;;37.67;30.75;;;;;;;;;;5283296;28;20091;-74
2023/04/09 03:56:21;;;;;;;42.47;34.40;;;;;;;;;;5283519;28;20020;-74
2023/04/09 03:58:52;;;;;;;41.47;31.95;;;;;;;;;;5282028;28;20016;-73
2023/04/09 04:01:23;;;;;;;39.90;31.45;;;;;;;;;;5283115;28;20032;-73
2023/04/09 04:03:54;;;;;;;37.15;29.45;;;;;;;;;;5282694;28;20017;-73
2023/04/09 04:06:26;;;;;;;37.25;30.63;;;;;;;;;;5282912;28;20267;-74
2023/04/09 04:08:57;;;;;;;35.40;28.80;;;;;;;;;;5282522;28;20074;-74
2023/04/09 04:11:29;;;;;;;33.92;28.85;;;;;;;;;;5282268;28;20096;-74
2023/04/09 04:14:00;;;;;;;37.90;30.23;;;;;;;;;;5282818;28;20023;-74
2023/04/09 04:16:32;;;;;;;35.17;28.70;;;;;;;;;;5283022;28;20039;-74
2023/04/09 04:19:04;;;;;;;32.83;27.70;;;;;;;;;;5281815;28;20031;-73
2023/04/09 04:21:35;;;;;;;31.35;26.80;;;;;;;;;;5282443;28;20468;-73
2023/04/09 04:24:06;;;;;;;34.40;28.20;;;;;;;;;;5283008;28;20045;-74
2023/04/09 04:26:38;;;;;;;34.42;29.38;;;;;;;;;;5281580;28;20279;-74
2023/04/09 04:29:09;;;;;;;33.08;27.65;;;;;;;;;;5283028;28;20386;-73
2023/04/09 04:31:40;;;;;;;35.33;28.40;;;;;;;;;;5282345;28;20029;-73
2023/04/09 04:34:12;;;;;;;33.58;28.17;;;;;;;;;;5282217;28;20032;-73
2023/04/09 04:36:43;;;;;;;35.05;28.33;;;;;;;;;;5282246;28;20490;-74
2023/04/09 04:39:14;;;;;;;33.90;27.73;;;;;;;;;;5281785;28;20020;-75
2023/04/09 04:41:45;;;;;;;35.17;29.08;;;;;;;;;;5281917;28;20078;-74
2023/04/09 04:44:16;;;;;;;36.22;30.58;;;;;;;;;;5282657;28;20074;-74
2023/04/09 04:46:47;;;;;;;37.50;29.00;;;;;;;;;;5281111;28;20104;-74
2023/04/09 04:49:19;;;;;;;34.60;27.42;;;;;;;;;;5282320;28;20042;-73
2023/04/09 04:51:50;;;;;;;35.33;27.60;;;;;;;;;;5281820;28;20021;-73
2023/04/09 04:54:21;;;;;;;32.42;27.73;;;;;;;;;;5281834;28;20028;-73
2023/04/09 04:56:52;;;;;;;34.33;27.40;;;;;;;;;;5281589;28;20066;-74
2023/04/09 04:59:23;;;;;;;35.78;27.65;;;;;;;;;;5282025;28;20033;-74
2023/04/09 05:01:55;;;;;;;35.72;28.40;;;;;;;;;;5280690;28;20455;-74
2023/04/09 05:04:26;;;;;;;34.05;27.60;;;;;;;;;;5282303;28;20044;-74
2023/04/09 05:06:57;;;;;;;35.22;27.00;;;;;;;;;;5281515;28;20047;-74
2023/04/09 05:09:28;;;;;;;31.45;25.95;;;;;;;;;;5281511;28;20036;-74
2023/04/09 05:12:00;;;;;;;36.34;28.62;;;;;;;;;;5281282;28;20099;-73
2023/04/09 05:14:31;;;;;;;33.92;26.70;;;;;;;;;;5281306;28;20062;-74
2023/04/09 05:17:02;;;;;;;36.67;29.35;;;;;;;;;;5281819;28;20034;-74
2023/04/09 05:19:34;;;;;;;32.53;25.35;;;;;;;;;;5282071;28;20020;-74
2023/04/09 05:22:05;;;;;;;31.52;25.25;;;;;;;;;;5280631;28;20037;-74
2023/04/09 05:24:36;;;;;;;31.60;26.33;;;;;;;;;;5281779;28;20017;-75
2023/04/09 05:27:07;;;;;;;32.58;25.88;;;;;;;;;;5281605;28;20035;-73
2023/04/09 05:29:38;;;;;;;32.95;25.77;;;;;;;;;;5280698;28;20095;-73
2023/04/09 05:32:10;;;;;;;34.92;26.10;;;;;;;;;;5286141;28;20052;-74
2023/04/09 05:34:41;;;;;;;30.88;24.70;;;;;;;;;;5285715;28;20462;-74
2023/04/09 05:37:12;;;;;;;31.26;25.58;;;;;;;;;;5285440;28;20094;-74
2023/04/09 05:39:43;;;;;;;33.13;24.63;;;;;;;;;;5285367;28;20099;-74
2023/04/09 05:42:15;;;;;;;27.77;22.98;;;;;;;;;;5286080;28;20103;-74
2023/04/09 05:44:46;;;;;;;30.67;23.30;;;;;;;;;;5284941;28;20371;-74
2023/04/09 05:47:17;;;;;;;30.92;24.30;;;;;;;;;;5285898;28;20111;-74
2023/04/09 05:49:48;;;;;;;31.02;23.27;;;;;;;;;;5285083;28;20467;-74
2023/04/09 05:52:20;;;;;;;34.38;26.63;;;;;;;;;;5286065;28;20029;-74
2023/04/09 05:54:51;;;;;;;34.97;26.02;;;;;;;;;;5285222;28;20044;-75
2023/04/09 05:57:22;;;;;;;33.30;24.70;;;;;;;;;;5285151;28;20039;-74
2023/04/09 05:59:54;;;;;;;31.83;24.25;;;;;;;;;;5285060;28;20455;-74
2023/04/09 06:02:25;;;;;;;28.27;23.38;;;;;;;;;;5285797;28;20522;-74
2023/04/09 06:04:56;;;;;;;33.25;25.45;;;;;;;;;;5284464;28;20114;-74
2023/04/09 06:07:27;;;;;;;30.30;23.73;;;;;;;;;;5285797;28;20048;-74
2023/04/09 06:09:59;;;;;;;32.62;25.54;;;;;;;;;;5285114;28;20067;-74
2023/04/09 06:12:30;;;;;;;32.00;24.83;;;;;;;;;;5284467;28;20017;-74
2023/04/09 06:15:02;;;;;;;34.03;25.92;;;;;;;;;;5285442;28;20352;-74
2023/04/09 06:17:33;;;;;;;32.17;24.35;;;;;;;;;;5284776;28;20386;-75
2023/04/09 06:20:05;;;;;;;31.52;24.42;;;;;;;;;;5284678;28;20044;-74
2023/04/09 06:22:36;;;;;;;29.77;23.80;;;;;;;;;;5284919;28;20074;-74
2023/04/09 06:25:07;;;;;;;30.36;23.96;;;;;;;;;;5284191;28;20059;-74
2023/04/09 06:27:39;;;;;;;27.15;21.95;;;;;;;;;;5284687;28;20024;-74
2023/04/09 06:30:10;;;;;;;33.42;26.00;;;;;;;;;;5285112;28;20008;-74
2023/04/09 06:32:41;;;;;;;28.67;23.45;;;;;;;;;;5284181;28;20027;-74
2023/04/09 06:35:13;;;;;;;31.83;24.77;;;;;;;;;;5285078;28;20028;-74
2023/04/09 06:37:44;;;;;;;30.70;24.52;;;;;;;;;;5284665;28;20024;-74
2023/04/09 06:40:15;;;;;;;29.35;23.77;;;;;;;;;;5284479;28;20028;-75
2023/04/09 06:42:46;;;;;;;31.00;24.23;;;;;;;;;;5283253;28;20031;-74
2023/04/09 06:45:17;;;;;;;29.35;24.85;;;;;;;;;;5285057;28;20020;-75
2023/04/09 06:47:48;;;;;;;28.02;22.67;;;;;;;;;;5283960;28;20335;-74
2023/04/09 06:50:20;;;;;;;28.13;23.35;;;;;;;;;;5284679;28;20028;-73
2023/04/09 06:52:51;;;;;;;31.48;25.23;;;;;;;;;;5283427;28;20013;-74
2023/04/09 06:55:23;;;;;;;28.15;23.23;;;;;;;;;;5284754;28;20474;-73
2023/04/09 06:57:55;;;;;;;28.63;22.17;;;;;;;;;;5284128;28;20017;-74
2023/04/09 07:00:26;;;;;;;28.38;23.52;;;;;;;;;;5283705;28;20055;-74
2023/04/09 07:02:57;;;;;;;27.92;24.10;;;;;;;;;;5283999;28;20025;-74
2023/04/09 07:05:29;;;;;;;26.70;22.77;;;;;;;;;;5284694;28;20020;-73
2023/04/09 07:08:00;;;;;;;27.38;22.73;;;;;;;;;;5283401;28;20016;-75
2023/04/09 07:10:31;;;;;;;29.05;23.98;;;;;;;;;;5284193;28;20394;-75
2023/04/09 07:13:03;;;;;;;25.02;21.52;;;;;;;;;;5284015;28;20103;-75
2023/04/09 07:15:34;;;;;;;27.10;22.92;;;;;;;;;;5283176;28;20024;-75
2023/04/09 07:18:05;;;;;;;28.75;23.38;;;;;;;;;;5284093;28;20459;-74
2023/04/09 07:20:38;;;;;;;27.25;23.02;;;;;;;;;;5283884;28;20036;-74
2023/04/09 07:23:09;;;;;;;31.05;24.38;;;;;;;;;;5276870;28;20044;-74
2023/04/09 07:25:41;;;;;;;28.15;24.20;;;;;;;;;;5282079;28;20028;-73
2023/04/09 07:28:12;;;;;;;27.98;23.65;;;;;;;;;;5282298;28;20021;-74
2023/04/09 07:30:45;;;;;;;26.77;23.90;;;;;;;;;;5282671;28;20025;-74
2023/04/09 07:33:16;;;;;;;26.20;23.00;;;;;;;;;;5283145;28;20273;-74
2023/04/09 07:35:47;;;;;;;27.88;23.08;;;;;;;;;;5282063;28;20103;-74
2023/04/09 07:38:18;;;;;;;25.25;22.60;;;;;;;;;;5282805;28;20024;-75
2023/04/09 07:40:49;;;;;;;26.48;23.58;;;;;;;;;;5282589;28;20036;-74
2023/04/09 07:43:21;;;;;;;25.98;23.17;;;;;;;;;;5282490;28;20259;-74
2023/04/09 07:45:52;;;;;;;26.63;23.77;;;;;;;;;;5282922;28;20020;-74
2023/04/09 07:48:24;;;;;;;28.40;24.40;;;;;;;;;;5282620;28;20078;-75
2023/04/09 07:50:55;;;;;;;26.85;23.17;;;;;;;;;;5282219;28;20108;-78
2023/04/09 07:53:27;;;;;;;28.95;23.48;;;;;;;;;;5282290;28;20027;-78
2023/04/09 07:55:58;;;;;;;28.80;23.63;;;;;;;;;;5282987;28;20027;-78
2023/04/09 07:58:29;;;;;;;26.10;23.38;;;;;;;;;;5281893;28;20012;-79
2023/04/09 08:01:00;;;;;;;27.58;22.65;;;;;;;;;;5282228;28;20039;-78
2023/04/09 08:03:32;;;;;;;28.38;23.67;;;;;;;;;;5282373;28;20031;-79
2023/04/09 08:06:03;;;;;;;27.77;24.42;;;;;;;;;;5282992;28;20023;-78
2023/04/09 08:08:34;;;;;;;27.85;24.10;;;;;;;;;;5283098;28;20070;-79
2023/04/09 08:11:06;;;;;;;27.88;24.88;;;;;;;;;;5281865;28;20069;-78
2023/04/09 08:13:37;;;;;;;27.23;24.42;;;;;;;;;;5282962;28;20021;-78
2023/04/09 08:16:09;;;;;;;27.73;24.70;;;;;;;;;;5283349;28;20051;-80
2023/04/09 08:18:40;;;;;;;27.65;24.75;;;;;;;;;;5281879;28;20016;-79
2023/04/09 08:21:11;;;;;;;26.60;23.73;;;;;;;;;;5282251;28;20032;-78
2023/04/09 08:23:42;;;;;;;27.20;24.30;;;;;;;;;;5282834;28;20128;-74
2023/04/09 08:26:14;;;;;;;29.60;26.45;;;;;;;;;;5285471;28;20035;-79
2023/04/09 08:28:45;;;;;;;29.45;26.42;;;;;;;;;;5282686;28;20100;-76
2023/04/09 08:31:16;;;;;;;28.88;25.77;;;;;;;;;;5282148;28;20117;-76
2023/04/09 08:33:47;;;;;;;28.42;25.35;;;;;;;;;;5282192;28;20013;-74
2023/04/09 08:36:19;;;;;;;29.88;26.40;;;;;;;;;;5282673;28;20032;-74
2023/04/09 08:38:51;;;;;;;28.15;25.20;;;;;;;;;;5281374;28;20032;-72
2023/04/09 08:41:24;;;;;;;25.10;22.60;;;;;;;;;;5282625;28;20038;-76
2023/04/09 08:43:56;;;;;;;28.83;24.50;;;;;;;;;;5282049;28;20071;-76
2023/04/09 08:46:27;;;;;;;29.35;26.30;;;;;;;;;;5281525;28;20052;-75
2023/04/09 08:48:58;;;;;;;29.63;26.42;;;;;;;;;;5281945;28;20031;-75
2023/04/09 08:51:30;;;;;;;29.17;26.17;;;;;;;;;;5281980;28;20383;-76
2023/04/09 08:54:01;;;;;;;30.10;26.90;;;;;;;;;;5281193;28;20699;-75
2023/04/09 08:56:32;;;;;;;29.50;26.30;;;;;;;;;;5282154;28;20360;-75
2023/04/09 08:59:04;;;;;;;29.70;26.63;;;;;;;;;;5282119;28;20009;-75
2023/04/09 09:01:35;;;;;;;29.98;26.98;;;;;;;;;;5281445;28;20025;-76
2023/04/09 09:04:07;;;;;;;29.85;26.58;;;;;;;;;;5282141;28;20017;-76
2023/04/09 09:06:39;;;;;;;28.92;25.92;;;;;;;;;;5280270;28;20106;-76
2023/04/09 09:09:12;;;;;;;30.35;26.27;;;;;;;;;;5282248;28;20016;-75
2023/04/09 09:11:44;;;;;;;28.95;25.83;;;;;;;;;;5281751;28;20115;-75
2023/04/09 09:14:17;;;;;;;28.08;25.10;;;;;;;;;;5280794;28;20048;-74
2023/04/09 09:16:54;;;;;;;29.05;25.95;;;;;;;;;;5281226;28;20036;-75
2023/04/09 09:19:25;;;;;;;27.75;24.77;;;;;;;;;;5282305;28;20021;-74
2023/04/09 09:22:00;;;;;;;28.38;24.60;;;;;;;;;;5280532;28;20064;-75
2023/04/09 09:24:33;;;;;;;28.25;25.27;;;;;;;;;;5281914;28;20274;-74
2023/04/09 09:27:04;;;;;;;28.65;25.55;;;;;;;;;;5281731;28;20024;-72
2023/04/09 09:29:40;;;;;;;26.92;24.17;;;;;;;;;;5280933;28;20016;-74
2023/04/09 09:32:12;;;;;;;29.20;25.83;;;;;;;;;;5281765;28;20375;-73
2023/04/09 09:34:56;;;;;;;26.80;23.75;;;;;;;;;;5280525;28;20383;-73
2023/04/09 09:37:27;;;;;;;23.35;21.05;;;;;;;;;;5281734;28;20013;-73
2023/04/09 09:39:59;;;;;;;23.15;20.83;;;;;;;;;;5281213;28;20019;-74
2023/04/09 09:42:31;;;;;;;22.55;20.17;;;;;;;;;;5280905;28;20109;-74
2023/04/09 09:45:16;;;;;;;22.42;20.02;;;;;;;;;;5281470;28;20391;-75
2023/04/09 09:47:47;;;;;;;22.75;20.48;;;;;;;;;;5280895;28;20395;-73
2023/04/09 09:50:22;;;;;;;22.48;20.25;;;;;;;;;;5281073;28;20101;-74
2023/04/09 09:52:57;;;;;;;23.48;21.02;;;;;;;;;;5280925;28;20100;-73
2023/04/09 09:55:30;;;;;;;24.55;22.20;;;;;;;;;;5281517;28;20021;-73
2023/04/09 09:58:05;;;;;;;22.63;20.48;;;;;;;;;;5280487;28;20581;-72
2023/04/09 10:00:38;;;;;;;21.35;19.23;;;;;;;;;;5281397;28;20032;-73
2023/04/09 10:03:20;;;;;;;17.75;16.15;;;;;;;;;;5280797;28;20104;-74
2023/04/09 10:05:52;;;;;;;19.67;17.88;;;;;;;;;;5279758;28;20013;-73
2023/04/09 10:08:24;;;;;;;18.23;16.63;;;;;;;;;;5279940;28;20086;-73
2023/04/09 10:10:55;;;;;;;19.17;17.27;;;;;;;;;;5279046;28;20017;-74
2023/04/09 10:13:58;;;;;;;19.30;17.40;;;;;;;;;;5280713;28;20017;-73
2023/04/09 10:16:30;;;;;;;18.88;17.05;;;;;;;;;;5226820;28;20032;-73
2023/04/09 10:19:02;;;;;;;17.83;16.05;;;;;;;;;;5284356;28;20386;-73
2023/04/09 10:21:39;;;;;;;19.00;17.10;;;;;;;;;;5284621;28;20040;-71
2023/04/09 10:24:10;;;;;;;19.45;17.55;;;;;;;;;;5284135;28;20025;-72
2023/04/09 10:26:43;;;;;;;16.40;14.70;;;;;;;;;;5284452;28;20067;-73
2023/04/09 10:29:15;;;;;;;14.68;13.20;;;;;;;;;;5285326;28;20019;-73
2023/04/09 10:31:48;;;;;;;18.80;16.73;;;;;;;;;;5283779;28;20021;-72
2023/04/09 10:34:21;;;;;;;19.98;17.38;;;;;;;;;;5284950;28;20020;-73
2023/04/09 10:36:56;;;;;;;17.73;16.02;;;;;;;;;;5283969;28;20028;-73
2023/04/09 10:39:30;;;;;;;19.10;17.10;;;;;;;;;;5283700;28;20029;-72
2023/04/09 10:42:10;;;;;;;17.83;16.13;;;;;;;;;;5283867;28;20040;-71
2023/04/09 10:44:41;;;;;;;17.08;15.38;;;;;;;;;;5284194;28;20101;-72
2023/04/09 10:47:29;;;;;;;16.17;14.32;;;;;;;;;;5283623;28;20152;-71
2023/04/09 10:50:16;;;;;;;16.70;14.90;;;;;;;;;;5284326;28;20019;-73
2023/04/09 10:52:51;;;;;;;15.75;13.35;;;;;;;;;;5282909;28;20354;-72
2023/04/09 10:55:29;;;;;;;13.40;12.18;;;;;;;;;;5284111;28;20025;-73
2023/04/09 10:58:01;;;;;;;13.32;11.95;;;;;;;;;;5283938;28;20024;-74
2023/04/09 11:00:36;;;;;;;11.70;10.50;;;;;;;;;;5283171;28;20463;-71
2023/04/09 11:03:16;;;;;;;14.93;13.43;;;;;;;;;;5283791;28;20032;-73
2023/04/09 11:05:49;;;;;;;11.55;10.40;;;;;;;;;;5283534;28;20359;-72
2023/04/09 11:08:21;;;;;;;11.82;10.70;;;;;;;;;;5282754;28;20031;-74
2023/04/09 11:10:57;;;;;;;15.43;13.82;;;;;;;;;;5283805;28;20375;-73
2023/04/09 11:13:28;;;;;;;12.77;11.55;;;;;;;;;;5283676;28;20078;-73
2023/04/09 11:16:02;;;;;;;17.67;15.45;;;;;;;;;;5283313;28;20020;-73
2023/04/09 11:18:33;;;;;;;14.23;12.85;;;;;;;;;;5283513;28;20021;-70
2023/04/09 11:21:05;;;;;;;12.88;11.65;;;;;;;;;;5281836;28;20559;-71
2023/04/09 11:23:36;;;;;;;16.38;14.52;;;;;;;;;;5283225;28;20052;-72
2023/04/09 11:26:08;;;;;;;15.88;14.27;;;;;;;;;;5283656;28;20024;-72
2023/04/09 11:28:41;;;;;;;17.63;15.88;;;;;;;;;;5281439;28;20020;-72
2023/04/09 11:31:12;;;;;;;16.75;15.00;;;;;;;;;;5283590;28;20379;-73
2023/04/09 11:33:46;;;;;;;13.30;12.00;;;;;;;;;;5282015;28;20023;-72
2023/04/09 11:36:18;;;;;;;10.20;9.20;;;;;;;;;;5282747;28;20320;-71
2023/04/09 11:38:50;;;;;;;8.77;7.90;;;;;;;;;;5282636;28;20024;-73
2023/04/09 11:41:34;;;;;;;8.60;7.70;;;;;;;;;;5282108;28;20303;-72
2023/04/09 11:44:06;;;;;;;10.15;9.15;;;;;;;;;;5281532;28;20115;-70
2023/04/09 11:46:38;;;;;;;9.80;8.90;;;;;;;;;;5281753;28;20062;-73
2023/04/09 11:49:09;;;;;;;10.57;9.02;;;;;;;;;;5282009;28;20047;-72
2023/04/09 11:51:40;;;;;;;9.83;8.93;;;;;;;;;;5281802;28;20036;-71
2023/04/09 11:54:12;;;;;;;9.88;8.98;;;;;;;;;;5282073;28;20428;-72
2023/04/09 11:56:43;;;;;;;11.27;10.18;;;;;;;;;;5280838;28;20029;-71
2023/04/09 11:59:15;;;;;;;9.50;8.60;;;;;;;;;;5281413;28;20016;-71
2023/04/09 12:01:50;;;;;;;9.02;8.23;;;;;;;;;;5281163;28;20369;-71
2023/04/09 12:04:21;;;;;;;7.63;6.93;;;;;;;;;;5279699;28;20021;-72
2023/04/09 12:06:57;;;;;;;10.40;9.10;;;;;;;;;;5279674;28;20478;-72
2023/04/09 12:09:28;;;;;;;12.40;11.10;;;;;;;;;;5280897;28;20146;-72
2023/04/09 12:12:01;;;;;;;13.40;12.10;;;;;;;;;;5280819;28;20106;-72
2023/04/09 12:14:32;;;;;;;11.43;10.02;;;;;;;;;;5281356;28;20302;-72
2023/04/09 12:17:03;;;;;;;9.90;7.97;;;;;;;;;;5280112;28;20044;-72
2023/04/09 12:19:35;;;;;;;9.40;8.00;;;;;;;;;;5280915;28;20051;-71
2023/04/09 12:22:06;;;;;;;9.45;8.55;;;;;;;;;;5280800;28;20383;-72
2023/04/09 12:24:37;;;;;;;10.38;9.38;;;;;;;;;;5277133;28;20029;-71
2023/04/09 12:27:09;;;;;;;10.93;9.82;;;;;;;;;;5281194;28;20335;-71
2023/04/09 12:29:40;;;;;;;11.05;9.95;;;;;;;;;;5280022;28;20307;-69
2023/04/09 12:32:12;;;;;;;11.10;9.90;;;;;;;;;;5280049;28;20370;-71
2023/04/09 12:34:43;;;;;;;9.73;8.83;;;;;;;;;;5279667;28;20685;-71
2023/04/09 12:37:14;;;;;;;10.02;9.02;;;;;;;;;;5280930;28;20388;-72
2023/04/09 12:39:46;;;;;;;8.85;8.05;;;;;;;;;;5279247;28;20390;-72
2023/04/09 12:42:17;;;;;;;9.48;8.57;;;;;;;;;;5280864;28;20029;-72
2023/04/09 12:44:49;;;;;;;8.20;7.40;;;;;;;;;;5280097;28;20021;-72
2023/04/09 12:47:20;;;;;;;10.93;9.83;;;;;;;;;;5281791;28;20040;-73
2023/04/09 12:49:51;;;;;;;11.10;10.00;;;;;;;;;;5280489;28;20768;-71
2023/04/09 12:52:23;;;;;;;10.27;9.18;;;;;;;;;;5279178;28;20431;-71
2023/04/09 12:54:54;;;;;;;10.65;8.35;;;;;;;;;;5280519;28;20020;-71
2023/04/09 12:57:26;;;;;;;11.02;9.77;;;;;;;;;;5282281;28;20009;-73
2023/04/09 12:59:57;;;;;;;10.40;9.40;;;;;;;;;;5279170;28;20028;-70
2023/04/09 13:02:29;;;;;;;12.00;10.07;;;;;;;;;;5280774;28;20020;-71
2023/04/09 13:05:00;;;;;;;10.30;8.10;;;;;;;;;;5281005;28;20100;-71
2023/04/09 13:07:31;;;;;;;8.65;7.85;;;;;;;;;;5279319;28;20025;-73
2023/04/09 13:10:02;;;;;;;8.68;7.78;;;;;;;;;;5279993;28;20013;-70
2023/04/09 13:12:34;;;;;;;9.68;8.23;;;;;;;;;;5278852;28;20103;-72
2023/04/09 13:15:05;;;;;;;7.70;6.93;;;;;;;;;;5281496;28;20024;-72
2023/04/09 13:17:36;;;;;;;8.70;7.90;;;;;;;;;;5281619;28;20360;-73
2023/04/09 13:20:08;;;;;;;10.73;7.80;;;;;;;;;;5281169;28;20024;-73
2023/04/09 13:22:39;;;;;;;11.23;8.18;;;;;;;;;;5281154;28;20315;-76
2023/04/09 13:25:10;;;;;;;8.95;7.65;;;;;;;;;;5282176;28;20016;-72
2023/04/09 13:27:41;;;;;;;7.93;7.07;;;;;;;;;;5280548;28;20017;-71
2023/04/09 13:30:14;;;;;;;9.77;8.77;;;;;;;;;;5281986;28;20345;-72
2023/04/09 13:32:46;;;;;;;8.70;7.90;;;;;;;;;;5281466;28;20404;-73
2023/04/09 13:35:17;;;;;;;8.55;7.15;;;;;;;;;;5281383;28;20107;-73
2023/04/09 13:37:49;;;;;;;9.32;8.43;;;;;;;;;;5281288;28;20024;-73
2023/04/09 13:40:20;;;;;;;7.93;7.15;;;;;;;;;;5281535;28;20028;-73
2023/04/09 13:42:52;;;;;;;9.20;8.27;;;;;;;;;;5280353;28;20142;-72
2023/04/09 13:45:23;;;;;;;12.32;8.80;;;;;;;;;;5282042;28;20450;-72
2023/04/09 13:47:54;;;;;;;8.73;7.83;;;;;;;;;;5280681;28;20606;-73
2023/04/09 13:50:25;;;;;;;7.23;6.60;;;;;;;;;;5281684;28;20304;-73
2023/04/09 13:52:56;;;;;;;8.18;7.38;;;;;;;;;;5284675;28;20277;-73
2023/04/09 13:55:29;;;;;;;9.02;8.23;;;;;;;;;;5285339;28;20025;-72
2023/04/09 13:58:00;;;;;;;7.85;7.05;;;;;;;;;;5285319;28;20099;-72
2023/04/09 14:00:33;;;;;;;7.33;6.60;;;;;;;;;;5285419;28;20557;-72
2023/04/09 14:03:04;;;;;;;7.90;7.10;;;;;;;;;;5284487;28;20365;-71
2023/04/09 14:05:35;;;;;;;7.43;6.57;;;;;;;;;;5285447;28;20474;-72
2023/04/09 14:08:06;;;;;;;8.13;7.33;;;;;;;;;;5285524;28;20462;-73
2023/04/09 14:10:38;;;;;;;8.00;7.30;;;;;;;;;;5284695;28;20413;-72
2023/04/09 14:13:10;;;;;;;8.88;8.07;;;;;;;;;;5285237;28;20282;-72
2023/04/09 14:15:44;;;;;;;8.55;7.25;;;;;;;;;;5284876;28;20024;-71
2023/04/09 14:18:15;;;;;;;8.80;7.57;;;;;;;;;;5284599;28;20017;-72
2023/04/09 14:20:46;;;;;;;8.63;7.60;;;;;;;;;;5284321;28;20020;-72
2023/04/09 14:23:17;;;;;;;8.63;7.82;;;;;;;;;;5284119;28;20357;-72
2023/04/09 14:25:48;;;;;;;8.77;7.90;;;;;;;;;;5284312;28;20048;-72
2023/04/09 14:28:20;;;;;;;7.87;6.77;;;;;;;;;;5284999;28;20270;-72
2023/04/09 14:30:51;;;;;;;8.25;7.43;;;;;;;;;;5283979;28;20799;-72
2023/04/09 14:33:22;;;;;;;6.93;6.03;;;;;;;;;;5284767;28;20017;-73
2023/04/09 14:35:54;;;;;;;7.00;6.30;;;;;;;;;;5284281;28;20455;-73
2023/04/09 14:38:25;;;;;;;5.53;5.03;;;;;;;;;;5283981;28;20473;-73
2023/04/09 14:40:56;;;;;;;7.88;7.07;;;;;;;;;;5284023;28;20537;-73
2023/04/09 14:43:27;;;;;;;7.53;6.05;;;;;;;;;;5285090;28;20028;-73
2023/04/09 14:45:58;;;;;;;7.10;6.38;;;;;;;;;;5283731;28;20263;-71
2023/04/09 14:48:30;;;;;;;7.50;6.80;;;;;;;;;;5284619;28;20017;-73